createdAt,value
2023-06-07T00:01:19.132Z,101965.14
2023-06-07T00:03:49.849Z,101968.26
2023-06-07T00:06:20.181Z,101968.34
2023-06-07T00:08:50.887Z,101965.85
2023-06-07T00:11:21.120Z,101960.27
2023-06-07T00:13:51.562Z,101958.14
2023-06-07T00:16:22.118Z,101955.63
2023-06-07T00:18:52.579Z,101953.04
2023-06-07T00:21:22.924Z,101950.95
2023-06-07T00:23:53.050Z,101953.03
2023-06-07T00:26:23.575Z,101955.49
2023-06-07T00:28:53.969Z,101957.39
2023-06-07T00:31:25.129Z,101959.26
2023-06-07T00:33:54.931Z,101956.94
2023-06-07T00:36:25.837Z,101957.90
2023-06-07T00:38:56.290Z,101954.84
2023-06-07T00:41:27.144Z,101952.22
2023-06-07T00:43:57.943Z,101950.64
2023-06-07T00:46:28.173Z,101955.42
2023-06-07T00:48:58.807Z,101954.00
2023-06-07T00:51:28.881Z,101954.07
2023-06-07T00:53:59.021Z,101954.79
2023-06-07T00:56:29.316Z,101951.10
2023-06-07T00:58:59.763Z,101950.85
2023-06-07T01:01:30.320Z,101948.70
2023-06-07T01:04:00.881Z,101950.46
2023-06-07T01:06:31.329Z,101949.80
2023-06-07T01:09:01.772Z,101949.43
2023-06-07T01:11:32.387Z,101950.26
2023-06-07T01:14:02.927Z,101954.89
2023-06-07T01:16:33.127Z,101958.38
2023-06-07T01:19:03.203Z,101958.27
2023-06-07T01:21:33.720Z,101955.33
2023-06-07T01:24:04.232Z,101952.75
2023-06-07T01:26:34.541Z,101951.48
2023-06-07T01:29:04.976Z,101950.86
2023-06-07T01:31:35.589Z,101948.52
2023-06-07T01:34:05.688Z,101948.80
2023-06-07T01:36:35.843Z,101947.87
2023-06-07T01:39:06.324Z,101945.18
2023-06-07T01:41:36.911Z,101949.70
2023-06-07T01:44:07.125Z,101950.15
2023-06-07T01:46:37.684Z,101951.28
2023-06-07T01:49:07.873Z,101949.49
2023-06-07T01:51:38.124Z,101946.88
2023-06-07T01:54:08.489Z,101943.77
2023-06-07T01:56:38.736Z,101943.67
2023-06-07T01:59:08.965Z,101942.63
2023-06-07T02:01:39.506Z,101941.13
2023-06-07T02:04:10.164Z,101941.35
2023-06-07T02:06:40.155Z,101936.62
2023-06-07T02:09:10.424Z,101939.66
2023-06-07T02:11:40.908Z,101938.65
2023-06-07T02:14:11.088Z,101935.51
2023-06-07T02:16:41.938Z,101934.95
2023-06-07T02:19:12.597Z,101931.28
2023-06-07T02:21:43.107Z,101930.23
2023-06-07T02:24:13.350Z,101932.29
2023-06-07T02:26:43.529Z,101932.94
2023-06-07T02:29:13.950Z,101930.78
2023-06-07T02:31:44.529Z,101936.86
2023-06-07T02:34:14.954Z,101944.97
2023-06-07T02:36:45.590Z,101947.71
2023-06-07T02:39:15.680Z,101948.16
2023-06-07T02:41:45.924Z,101947.43
2023-06-07T02:44:16.403Z,101947.34
2023-06-07T02:46:46.994Z,101945.58
2023-06-07T02:49:17.426Z,101946.90
2023-06-07T02:51:48.097Z,101946.87
2023-06-07T02:54:18.412Z,101943.91
2023-06-07T02:56:48.854Z,101938.69
2023-06-07T02:59:19.344Z,101941.59
2023-06-07T03:01:50.163Z,101938.48
2023-06-07T03:04:20.638Z,101937.20
2023-06-07T03:06:51.440Z,101938.04
2023-06-07T03:09:21.634Z,101938.76
2023-06-07T03:11:51.882Z,101939.04
2023-06-07T03:14:22.016Z,101935.38
2023-06-07T03:16:52.624Z,101932.77
2023-06-07T03:19:22.778Z,101933.84
2023-06-07T03:21:53.025Z,101934.63
2023-06-07T03:24:23.186Z,101934.04
2023-06-07T03:26:53.706Z,101933.29
2023-06-07T03:29:24.205Z,101932.53
2023-06-07T03:31:54.480Z,101940.37
2023-06-07T03:34:24.685Z,101942.60
2023-06-07T03:36:55.442Z,101943.16
2023-06-07T03:39:25.672Z,101944.23
2023-06-07T03:41:56.492Z,101944.09
2023-06-07T03:44:26.654Z,101949.84
2023-06-07T03:46:56.926Z,101946.08
2023-06-07T03:49:27.132Z,101942.30
2023-06-07T03:51:57.671Z,101942.47
2023-06-07T03:54:27.893Z,101943.44
2023-06-07T03:56:58.549Z,101941.25
2023-06-07T03:59:28.892Z,101944.08
2023-06-07T04:01:59.412Z,101938.76
2023-06-07T04:04:29.670Z,101937.55
2023-06-07T04:07:00.122Z,101943.91
2023-06-07T04:09:30.634Z,101945.05
2023-06-07T04:12:00.842Z,101943.81
2023-06-07T04:14:31.071Z,101947.47
2023-06-07T04:17:01.663Z,101947.21
2023-06-07T04:19:32.361Z,101946.60
2023-06-07T04:22:02.680Z,101947.22
2023-06-07T04:24:33.327Z,101947.54
2023-06-07T04:27:03.860Z,101945.02
2023-06-07T04:29:34.026Z,101946.11
2023-06-07T04:32:04.404Z,101941.95
2023-06-07T04:34:34.440Z,101938.28
2023-06-07T04:37:05.333Z,101945.25
2023-06-07T04:39:35.750Z,101947.11
2023-06-07T04:42:06.012Z,101953.66
2023-06-07T04:44:36.527Z,101951.45
2023-06-07T04:47:09.955Z,101951.36
2023-06-07T04:49:36.941Z,101955.73
2023-06-07T04:52:07.484Z,101956.34
2023-06-07T04:54:38.171Z,101958.02
2023-06-07T04:57:08.767Z,101954.44
2023-06-07T04:59:38.926Z,101950.53
2023-06-07T05:02:09.420Z,101951.84
2023-06-07T05:04:39.971Z,101957.88
2023-06-07T05:07:10.722Z,101962.54
2023-06-07T05:09:41.548Z,101959.15
2023-06-07T05:12:12.082Z,101958.32
2023-06-07T05:14:42.349Z,101954.50
2023-06-07T05:17:12.449Z,101956.06
2023-06-07T05:19:42.929Z,101956.34
2023-06-07T05:22:13.461Z,101960.13
2023-06-07T05:24:43.613Z,101958.59
2023-06-07T05:27:14.419Z,101961.48
2023-06-07T05:29:44.624Z,101965.53
2023-06-07T05:32:15.179Z,101965.22
2023-06-07T05:34:45.372Z,101970.71
2023-06-07T05:37:15.851Z,101974.41
2023-06-07T05:39:46.026Z,101973.00
2023-06-07T05:42:16.784Z,101973.85
2023-06-07T05:44:46.931Z,101976.54
2023-06-07T05:47:17.498Z,101974.89
2023-06-07T05:49:47.909Z,101976.34
2023-06-07T05:52:18.836Z,101979.43
2023-06-07T05:54:49.325Z,101977.81
2023-06-07T05:57:19.472Z,101978.28
2023-06-07T05:59:49.460Z,101983.57
2023-06-07T06:02:19.953Z,101981.67
2023-06-07T06:04:50.819Z,101978.74
2023-06-07T06:07:20.954Z,101983.53
2023-06-07T06:09:51.459Z,101983.63
2023-06-07T06:12:22.319Z,101985.94
2023-06-07T06:14:52.477Z,101989.57
2023-06-07T06:17:23.308Z,101989.94
2023-06-07T06:19:53.809Z,101989.82
2023-06-07T06:22:24.743Z,101988.83
2023-06-07T06:24:55.000Z,101986.30
2023-06-07T06:27:25.127Z,101989.32
2023-06-07T06:29:55.458Z,101991.42
2023-06-07T06:32:25.911Z,101993.20
2023-06-07T06:34:56.168Z,101990.61
2023-06-07T06:37:26.887Z,101990.58
2023-06-07T06:39:57.144Z,101989.34
2023-06-07T06:42:27.610Z,101992.94
2023-06-07T06:44:57.654Z,101995.50
2023-06-07T06:47:28.151Z,101999.76
2023-06-07T06:49:58.541Z,102004.41
2023-06-07T06:52:29.416Z,102004.72
2023-06-07T06:54:59.919Z,102006.20
2023-06-07T06:57:30.613Z,102008.54
2023-06-07T07:00:00.828Z,102009.63
2023-06-07T07:02:31.640Z,102009.69
2023-06-07T07:05:01.666Z,102012.32
2023-06-07T07:07:32.238Z,102008.74
2023-06-07T07:10:02.463Z,102012.02
2023-06-07T07:12:32.778Z,102012.46
2023-06-07T07:15:03.073Z,102015.99
2023-06-07T07:17:34.143Z,102014.61
2023-06-07T07:20:04.723Z,102017.40
2023-06-07T07:22:34.418Z,102019.37
2023-06-07T07:25:04.978Z,102018.25
2023-06-07T07:27:35.863Z,102019.80
2023-06-07T07:30:06.428Z,102015.30
2023-06-07T07:32:36.457Z,102015.62
2023-06-07T07:35:06.803Z,102018.29
2023-06-07T07:37:36.980Z,102017.78
2023-06-07T07:40:07.502Z,102014.80
2023-06-07T07:42:37.595Z,102018.44
2023-06-07T07:45:07.719Z,102022.30
2023-06-07T07:47:37.921Z,102020.47
2023-06-07T07:50:08.789Z,102014.69
2023-06-07T07:52:39.202Z,102014.08
2023-06-07T07:55:09.621Z,102007.11
2023-06-07T07:57:39.980Z,102007.03
2023-06-07T08:00:10.469Z,102005.94
2023-06-07T08:02:41.000Z,102011.14
2023-06-07T08:05:11.325Z,102012.97
2023-06-07T08:07:41.455Z,102012.78
2023-06-07T08:10:11.881Z,102009.55
2023-06-07T08:12:42.614Z,102013.88
2023-06-07T08:15:12.637Z,102009.50
2023-06-07T08:17:42.740Z,102006.07
2023-06-07T08:20:12.959Z,102006.66
2023-06-07T08:22:43.224Z,102006.90
2023-06-07T08:25:13.445Z,101999.89
2023-06-07T08:27:43.793Z,102002.32
2023-06-07T08:30:14.092Z,101997.52
2023-06-07T08:32:44.503Z,101993.41
2023-06-07T08:35:14.844Z,101998.01
2023-06-07T08:37:45.254Z,101995.07
2023-06-07T08:40:17.911Z,101994.34
2023-06-07T08:42:45.700Z,101989.79
2023-06-07T08:45:16.049Z,101985.55
2023-06-07T08:47:46.099Z,101986.31
2023-06-07T08:50:16.377Z,101981.85
2023-06-07T08:52:46.749Z,101981.03
2023-06-07T08:55:17.064Z,101983.01
2023-06-07T08:57:47.244Z,101986.42
2023-06-07T09:00:17.472Z,101986.35
2023-06-07T09:02:47.882Z,101990.35
2023-06-07T09:05:18.146Z,101998.32
2023-06-07T09:07:48.493Z,101995.44
2023-06-07T09:10:19.439Z,101993.64
2023-06-07T09:12:49.695Z,101994.12
2023-06-07T09:15:19.997Z,101991.99
2023-06-07T09:17:51.128Z,101989.21
2023-06-07T09:20:21.181Z,101986.58
2023-06-07T09:22:51.512Z,101993.95
2023-06-07T09:25:21.843Z,101995.07
2023-06-07T09:27:52.075Z,101987.37
2023-06-07T09:30:22.576Z,101983.13
2023-06-07T09:32:52.708Z,101982.17
2023-06-07T09:35:23.033Z,101978.89
2023-06-07T09:37:53.233Z,101974.52
2023-06-07T09:40:23.606Z,101972.70
2023-06-07T09:42:54.021Z,101968.08
2023-06-07T09:45:24.321Z,101965.73
2023-06-07T09:47:54.910Z,101961.62
2023-06-07T09:50:25.218Z,101963.58
2023-06-07T09:52:55.405Z,101961.14
2023-06-07T09:55:25.669Z,101967.96
2023-06-07T09:57:55.974Z,101962.64
2023-06-07T10:00:26.227Z,101965.83
2023-06-07T10:02:56.613Z,101963.61
2023-06-07T10:05:26.700Z,101957.61
2023-06-07T10:07:56.946Z,101961.61
2023-06-07T10:10:27.799Z,101958.00
2023-06-07T10:12:58.058Z,101955.41
2023-06-07T10:15:28.276Z,101954.84
2023-06-07T10:17:58.603Z,101955.89
2023-06-07T10:20:28.881Z,101958.61
2023-06-07T10:22:59.098Z,101958.65
2023-06-07T10:25:29.309Z,101960.48
2023-06-07T10:27:59.587Z,101958.77
2023-06-07T10:30:29.736Z,101956.82
2023-06-07T10:33:00.051Z,101956.40
2023-06-07T10:35:30.195Z,101952.50
2023-06-07T10:38:00.428Z,101951.04
2023-06-07T10:40:30.603Z,101944.38
2023-06-07T10:43:01.344Z,101940.77
2023-06-07T10:45:31.554Z,101932.42
2023-06-07T10:48:02.033Z,101926.17
2023-06-07T10:50:32.249Z,101925.06
2023-06-07T10:53:02.717Z,101916.75
2023-06-07T10:55:33.444Z,101922.09
2023-06-07T10:58:03.560Z,101920.71
2023-06-07T11:00:33.737Z,101917.75
2023-06-07T11:03:04.112Z,101921.54
2023-06-07T11:05:34.269Z,101923.28
2023-06-07T11:08:05.145Z,101921.62
2023-06-07T11:10:35.231Z,101917.21
2023-06-07T11:13:05.456Z,101915.21
2023-06-07T11:15:36.167Z,101910.44
2023-06-07T11:18:06.907Z,101904.97
2023-06-07T11:20:36.787Z,101907.19
2023-06-07T11:23:06.937Z,101909.42
2023-06-07T11:25:37.704Z,101909.86
2023-06-07T11:28:08.460Z,101909.16
2023-06-07T11:30:38.550Z,101905.71
2023-06-07T11:33:09.517Z,101900.23
2023-06-07T11:35:39.447Z,101897.26
2023-06-07T11:38:09.612Z,101896.03
2023-06-07T11:40:39.767Z,101894.72
2023-06-07T11:43:09.944Z,101895.40
2023-06-07T11:45:40.083Z,101889.21
2023-06-07T11:48:10.379Z,101884.92
2023-06-07T11:50:40.369Z,101880.56
2023-06-07T11:53:13.344Z,101883.26
2023-06-07T11:55:40.713Z,101878.72
2023-06-07T11:58:11.392Z,101874.67
2023-06-07T12:00:41.562Z,101873.54
2023-06-07T12:03:12.338Z,101868.77
2023-06-07T12:05:42.560Z,101868.70
2023-06-07T12:08:12.572Z,101864.24
2023-06-07T12:10:42.768Z,101867.21
2023-06-07T12:13:12.879Z,101867.26
2023-06-07T12:15:43.305Z,101865.25
2023-06-07T12:18:13.201Z,101862.42
2023-06-07T12:20:43.434Z,101864.24
2023-06-07T12:23:13.497Z,101863.11
2023-06-07T12:25:43.799Z,101860.28
2023-06-07T12:28:13.801Z,101863.76
2023-06-07T12:30:43.968Z,101860.08
2023-06-07T12:33:14.132Z,101862.04
2023-06-07T12:35:44.248Z,101862.87
2023-06-07T12:38:14.432Z,101859.24
2023-06-07T12:40:44.611Z,101855.97
2023-06-07T12:43:15.271Z,101854.63
2023-06-07T12:45:45.970Z,101848.12
2023-06-07T12:48:16.164Z,101844.83
2023-06-07T12:50:46.308Z,101841.60
2023-06-07T12:53:16.525Z,101840.42
2023-06-07T12:55:47.083Z,101841.59
2023-06-07T12:58:17.222Z,101836.72
2023-06-07T13:00:47.353Z,101836.26
2023-06-07T13:03:17.612Z,101832.99
2023-06-07T13:05:47.612Z,101826.51
2023-06-07T13:08:17.768Z,101832.56
2023-06-07T13:10:47.888Z,101830.02
2023-06-07T13:13:18.033Z,101827.75
2023-06-07T13:15:48.144Z,101821.53
2023-06-07T13:18:18.351Z,101818.70
2023-06-07T13:20:48.390Z,101820.50
2023-06-07T13:23:18.519Z,101812.58
2023-06-07T13:25:48.714Z,101810.72
2023-06-07T13:28:20.686Z,101805.08
2023-06-07T13:30:49.241Z,101804.63
2023-06-07T13:33:19.469Z,101806.25
2023-06-07T13:35:50.272Z,101803.61
2023-06-07T13:38:20.269Z,101797.32
2023-06-07T13:40:50.618Z,101800.23
2023-06-07T13:43:27.744Z,101797.87
2023-06-07T13:45:51.536Z,101801.14
2023-06-07T13:48:21.676Z,101796.51
2023-06-07T13:50:51.861Z,101798.41
2023-06-07T13:53:22.980Z,101787.57
2023-06-07T13:55:52.650Z,101787.48
2023-06-07T13:58:23.370Z,101785.61
2023-06-07T14:00:53.521Z,101781.49
2023-06-07T14:03:23.736Z,101781.05
2023-06-07T14:05:53.885Z,101776.25
2023-06-07T14:08:24.036Z,101777.21
2023-06-07T14:10:54.201Z,101772.55
2023-06-07T14:13:24.350Z,101766.56
2023-06-07T14:15:54.505Z,101765.18
2023-06-07T14:18:24.674Z,101758.93
2023-06-07T14:20:54.821Z,101762.89
2023-06-07T14:23:25.099Z,101752.57
2023-06-07T14:25:55.100Z,101755.25
2023-06-07T14:28:25.295Z,101751.75
2023-06-07T14:30:55.428Z,101753.68
2023-06-07T14:33:25.616Z,101756.55
2023-06-07T14:35:56.364Z,101756.38
2023-06-07T14:38:26.493Z,101753.81
2023-06-07T14:40:56.652Z,101751.79
2023-06-07T14:43:26.847Z,101750.21
2023-06-07T14:45:57.017Z,101744.74
2023-06-07T14:48:27.276Z,101738.95
2023-06-07T14:50:57.392Z,101743.78
2023-06-07T14:53:27.517Z,101737.72
2023-06-07T14:55:57.651Z,101736.54
2023-06-07T14:58:27.815Z,101738.74
2023-06-07T15:00:58.026Z,101738.42
2023-06-07T15:03:28.289Z,101731.90
2023-06-07T15:05:58.238Z,101731.64
2023-06-07T15:08:28.384Z,101730.17
2023-06-07T15:10:59.283Z,101728.90
2023-06-07T15:13:28.686Z,101726.94
2023-06-07T15:15:58.928Z,101731.59
2023-06-07T15:18:28.986Z,101727.20
2023-06-07T15:20:59.238Z,101723.58
2023-06-07T15:23:29.643Z,101719.91
2023-06-07T15:26:00.096Z,101719.75
2023-06-07T15:28:30.213Z,101716.52
2023-06-07T15:31:00.341Z,101717.96
2023-06-07T15:33:31.191Z,101721.75
2023-06-07T15:36:01.232Z,101716.42
2023-06-07T15:38:31.513Z,101716.38
2023-06-07T15:41:01.547Z,101713.60
2023-06-07T15:43:31.809Z,101712.74
2023-06-07T15:46:01.860Z,101714.99
2023-06-07T15:48:32.056Z,101712.49
2023-06-07T15:51:02.177Z,101706.84
2023-06-07T15:53:32.444Z,101704.73
2023-06-07T15:56:02.501Z,101703.38
2023-06-07T15:58:33.235Z,101701.91
2023-06-07T16:01:03.988Z,101701.69
2023-06-07T16:03:50.610Z,101702.69
2023-06-07T16:06:04.906Z,101699.67
2023-06-07T16:08:35.092Z,101699.67
2023-06-07T16:11:05.156Z,101697.00
2023-06-07T16:13:35.355Z,101703.39
2023-06-07T16:16:05.493Z,101696.81
2023-06-07T16:18:35.685Z,101691.67
2023-06-07T16:21:05.833Z,101694.68
2023-06-07T16:23:36.062Z,101694.04
2023-06-07T16:26:06.165Z,101694.82
2023-06-07T16:28:36.373Z,101693.08
2023-06-07T16:31:06.552Z,101701.97
2023-06-07T16:33:36.728Z,101695.84
2023-06-07T16:36:08.384Z,101699.85
2023-06-07T16:38:37.100Z,101700.77
2023-06-07T16:41:07.219Z,101699.50
2023-06-07T16:43:37.401Z,101701.55
2023-06-07T16:46:07.558Z,101699.77
2023-06-07T16:48:37.729Z,101699.91
2023-06-07T16:51:07.907Z,101701.69
2023-06-07T16:53:38.089Z,101705.98
2023-06-07T16:56:08.263Z,101702.83
2023-06-07T16:58:38.475Z,101705.65
2023-06-07T17:01:08.641Z,101703.53
2023-06-07T17:03:38.941Z,101706.73
2023-06-07T17:06:09.019Z,101707.92
2023-06-07T17:08:39.214Z,101704.49
2023-06-07T17:11:09.373Z,101704.02
2023-06-07T17:13:39.659Z,101703.19
2023-06-07T17:16:09.798Z,101711.15
2023-06-07T17:18:40.535Z,101706.93
2023-06-07T17:21:10.732Z,101704.13
2023-06-07T17:23:40.993Z,101708.18
2023-06-07T17:26:11.264Z,101710.62
2023-06-07T17:28:41.474Z,101705.87
2023-06-07T17:31:12.367Z,101709.43
2023-06-07T17:33:42.538Z,101711.00
2023-06-07T17:36:13.290Z,101711.28
2023-06-07T17:38:43.499Z,101716.15
2023-06-07T17:41:13.765Z,101720.83
2023-06-07T17:43:43.873Z,101723.99
2023-06-07T17:46:14.220Z,101727.96
2023-06-07T17:48:44.395Z,101722.45
2023-06-07T17:51:14.856Z,101720.08
2023-06-07T17:53:45.069Z,101721.74
2023-06-07T17:56:15.272Z,101720.18
2023-06-07T17:58:45.525Z,101720.10
2023-06-07T18:01:16.349Z,101720.27
2023-06-07T18:03:46.625Z,101719.78
2023-06-07T18:06:17.350Z,101719.23
2023-06-07T18:08:48.238Z,101723.08
2023-06-07T18:11:19.081Z,101719.38
2023-06-07T18:13:49.228Z,101721.84
2023-06-07T18:16:19.563Z,101724.89
2023-06-07T18:18:49.536Z,101726.50
2023-06-07T18:21:19.779Z,101726.51
2023-06-07T18:23:50.615Z,101729.39
2023-06-07T18:26:20.888Z,101730.82
2023-06-07T18:28:51.082Z,101737.75
2023-06-07T18:31:21.352Z,101737.08
2023-06-07T18:33:51.599Z,101744.55
2023-06-07T18:36:21.828Z,101744.55
2023-06-07T18:38:52.098Z,101746.51
2023-06-07T18:41:22.346Z,101745.87
2023-06-07T18:43:52.616Z,101747.58
2023-06-07T18:46:22.988Z,101745.56
2023-06-07T18:48:53.186Z,101741.66
2023-06-07T18:51:23.449Z,101742.66
2023-06-07T18:53:53.736Z,101744.88
2023-06-07T18:56:24.016Z,101743.35
2023-06-07T18:58:54.335Z,101743.98
2023-06-07T19:01:34.668Z,101748.62
2023-06-07T19:03:55.114Z,101744.03
2023-06-07T19:06:25.393Z,101750.27
2023-06-07T19:08:55.688Z,101749.83
2023-06-07T19:11:26.046Z,101753.26
2023-06-07T19:13:56.262Z,101755.37
2023-06-07T19:16:26.284Z,101765.57
2023-06-07T19:18:56.284Z,101760.48
2023-06-07T19:21:26.681Z,101763.15
2023-06-07T19:23:56.899Z,101761.71
2023-06-07T19:26:27.142Z,101765.76
2023-06-07T19:28:57.444Z,101765.49
2023-06-07T19:31:27.890Z,101768.57
2023-06-07T19:33:58.628Z,101765.92
2023-06-07T19:36:29.464Z,101768.28
2023-06-07T19:38:59.831Z,101767.44
2023-06-07T19:41:30.052Z,101767.08
2023-06-07T19:44:00.383Z,101773.91
2023-06-07T19:46:30.773Z,101774.16
2023-06-07T19:49:00.985Z,101778.95
2023-06-07T19:51:31.356Z,101779.84
2023-06-07T19:54:01.594Z,101782.44
2023-06-07T19:56:31.904Z,101785.06
2023-06-07T19:59:02.318Z,101783.67
2023-06-07T20:01:33.166Z,101788.33
2023-06-07T20:04:03.501Z,101789.25
2023-06-07T20:06:35.247Z,101792.91
2023-06-07T20:09:04.135Z,101793.43
2023-06-07T20:11:34.454Z,101795.72
2023-06-07T20:14:04.817Z,101792.77
2023-06-07T20:16:35.269Z,101793.53
2023-06-07T20:19:05.517Z,101795.74
2023-06-07T20:21:35.850Z,101796.26
2023-06-07T20:24:06.193Z,101797.57
2023-06-07T20:26:37.130Z,101799.42
2023-06-07T20:29:07.440Z,101804.45
2023-06-07T20:31:37.833Z,101802.09
2023-06-07T20:34:07.777Z,101801.43
2023-06-07T20:36:38.114Z,101801.31
2023-06-07T20:39:08.481Z,101799.51
2023-06-07T20:41:38.868Z,101801.21
2023-06-07T20:44:09.286Z,101802.96
2023-06-07T20:46:39.618Z,101806.73
2023-06-07T20:49:09.929Z,101810.66
2023-06-07T20:51:40.267Z,101813.69
2023-06-07T20:54:10.411Z,101816.34
2023-06-07T20:56:40.907Z,101815.89
2023-06-07T20:59:10.845Z,101810.39
2023-06-07T21:01:41.287Z,101811.87
2023-06-07T21:04:11.799Z,101813.44
2023-06-07T21:06:42.126Z,101813.45
2023-06-07T21:09:12.369Z,101812.58
2023-06-07T21:11:43.061Z,101808.18
2023-06-07T21:14:13.355Z,101804.33
2023-06-07T21:16:46.534Z,101802.54
2023-06-07T21:19:14.145Z,101802.68
2023-06-07T21:21:44.577Z,101802.08
2023-06-07T21:24:14.667Z,101800.17
2023-06-07T21:26:45.032Z,101804.41
2023-06-07T21:29:15.589Z,101804.79
2023-06-07T21:31:46.370Z,101809.51
2023-06-07T21:34:16.777Z,101812.85
2023-06-07T21:36:46.888Z,101812.71
2023-06-07T21:39:17.306Z,101816.58
2023-06-07T21:41:47.413Z,101818.95
2023-06-07T21:44:17.839Z,101817.66
2023-06-07T21:46:48.230Z,101818.88
2023-06-07T21:49:18.697Z,101820.18
2023-06-07T21:51:49.277Z,101825.61
2023-06-07T21:54:19.451Z,101824.42
2023-06-07T21:56:49.932Z,101820.47
2023-06-07T21:59:20.364Z,101819.21
2023-06-07T22:01:50.467Z,101817.49
2023-06-07T22:04:21.019Z,101820.72
2023-06-07T22:06:51.394Z,101818.00
2023-06-07T22:09:21.450Z,101820.50
2023-06-07T22:11:51.873Z,101817.01
2023-06-07T22:14:22.046Z,101813.53
2023-06-07T22:16:52.564Z,101813.34
2023-06-07T22:19:22.692Z,101812.96
2023-06-07T22:21:52.746Z,101813.70
2023-06-07T22:24:23.200Z,101812.90
2023-06-07T22:26:53.928Z,101814.83
2023-06-07T22:29:24.668Z,101817.74
2023-06-07T22:31:54.829Z,101819.47
2023-06-07T22:34:24.949Z,101818.03
2023-06-07T22:36:55.382Z,101819.97
2023-06-07T22:39:25.577Z,101822.93
2023-06-07T22:41:55.653Z,101826.63
2023-06-07T22:44:25.850Z,101824.20
2023-06-07T22:46:56.101Z,101824.26
2023-06-07T22:49:26.575Z,101825.60
2023-06-07T22:51:56.774Z,101829.74
2023-06-07T22:54:27.325Z,101833.38
2023-06-07T22:56:57.990Z,101831.08
2023-06-07T22:59:28.526Z,101827.98
2023-06-07T23:01:59.248Z,101826.04
2023-06-07T23:04:29.664Z,101825.15
2023-06-07T23:07:00.097Z,101826.81
2023-06-07T23:09:30.758Z,101824.48
2023-06-07T23:12:01.206Z,101821.86
2023-06-07T23:14:31.749Z,101820.85
2023-06-07T23:17:02.144Z,101821.73
2023-06-07T23:19:32.396Z,101815.01
2023-06-07T23:22:02.890Z,101815.65
2023-06-07T23:24:33.030Z,101813.32
2023-06-07T23:27:03.755Z,101814.94
2023-06-07T23:29:34.456Z,101813.17
2023-06-07T23:32:04.983Z,101808.18
2023-06-07T23:34:35.320Z,101805.33
2023-06-07T23:37:05.925Z,101805.61
2023-06-07T23:39:36.634Z,101805.08
2023-06-07T23:42:06.950Z,101806.43
2023-06-07T23:44:37.068Z,101806.16
2023-06-07T23:47:07.792Z,101805.04
2023-06-07T23:49:38.307Z,101803.53
2023-06-07T23:52:09.185Z,101799.60
2023-06-07T23:54:39.821Z,101799.17
2023-06-07T23:57:10.316Z,101799.51
2023-06-07T23:59:40.571Z,101803.93
